sensor_id;sensor_type;location;lat;lon;timestamp;P1;durP1;ratioP1;P2;durP2;ratioP2
70247;SDS011;57641;51.416;5.506;2022-11-12T00:01:28;18.90;;;10.35;;
70247;SDS011;57641;51.416;5.506;2022-11-12T00:03:54;16.48;;;10.50;;
70247;SDS011;57641;51.416;5.506;2022-11-12T00:06:21;16.67;;;9.93;;
70247;SDS011;57641;51.416;5.506;2022-11-12T00:08:47;15.18;;;9.30;;
70247;SDS011;57641;51.416;5.506;2022-11-12T00:11:14;14.27;;;10.32;;
70247;SDS011;57641;51.416;5.506;2022-11-12T00:13:40;13.82;;;9.35;;
70247;SDS011;57641;51.416;5.506;2022-11-12T00:16:06;18.00;;;10.13;;
70247;SDS011;57641;51.416;5.506;2022-11-12T00:18:34;16.67;;;9.82;;
70247;SDS011;57641;51.416;5.506;2022-11-12T00:21:00;15.07;;;9.77;;
70247;SDS011;57641;51.416;5.506;2022-11-12T00:23:25;18.45;;;10.02;;
70247;SDS011;57641;51.416;5.506;2022-11-12T00:25:58;16.90;;;10.40;;
70247;SDS011;57641;51.416;5.506;2022-11-12T00:28:25;15.23;;;9.38;;
70247;SDS011;57641;51.416;5.506;2022-11-12T00:30:51;15.68;;;9.20;;
70247;SDS011;57641;51.416;5.506;2022-11-12T00:33:17;14.05;;;8.93;;
70247;SDS011;57641;51.416;5.506;2022-11-12T00:35:43;14.10;;;9.05;;
70247;SDS011;57641;51.416;5.506;2022-11-12T00:38:09;13.68;;;8.40;;
70247;SDS011;57641;51.416;5.506;2022-11-12T00:40:35;20.38;;;9.57;;
70247;SDS011;57641;51.416;5.506;2022-11-12T00:43:01;17.65;;;9.27;;
70247;SDS011;57641;51.416;5.506;2022-11-12T00:45:27;15.20;;;8.45;;
70247;SDS011;57641;51.416;5.506;2022-11-12T00:47:54;12.02;;;7.80;;
70247;SDS011;57641;51.416;5.506;2022-11-12T00:50:20;13.77;;;8.60;;
70247;SDS011;57641;51.416;5.506;2022-11-12T00:52:46;13.70;;;8.23;;
70247;SDS011;57641;51.416;5.506;2022-11-12T00:55:12;13.50;;;8.90;;
70247;SDS011;57641;51.416;5.506;2022-11-12T00:57:38;16.08;;;8.52;;
70247;SDS011;57641;51.416;5.506;2022-11-12T01:00:05;12.07;;;7.88;;
70247;SDS011;57641;51.416;5.506;2022-11-12T01:02:31;18.10;;;8.90;;
70247;SDS011;57641;51.416;5.506;2022-11-12T01:04:57;11.50;;;7.60;;
70247;SDS011;57641;51.416;5.506;2022-11-12T01:07:23;18.50;;;8.70;;
70247;SDS011;57641;51.416;5.506;2022-11-12T01:09:49;12.88;;;8.13;;
70247;SDS011;57641;51.416;5.506;2022-11-12T01:12:15;11.70;;;7.93;;
70247;SDS011;57641;51.416;5.506;2022-11-12T01:14:41;14.02;;;8.48;;
70247;SDS011;57641;51.416;5.506;2022-11-12T01:17:07;15.02;;;8.27;;
70247;SDS011;57641;51.416;5.506;2022-11-12T01:19:33;11.77;;;7.43;;
70247;SDS011;57641;51.416;5.506;2022-11-12T01:21:59;11.15;;;7.38;;
70247;SDS011;57641;51.416;5.506;2022-11-12T01:24:25;11.95;;;7.75;;
70247;SDS011;57641;51.416;5.506;2022-11-12T01:26:51;11.77;;;7.38;;
70247;SDS011;57641;51.416;5.506;2022-11-12T01:29:17;14.85;;;7.95;;
70247;SDS011;57641;51.416;5.506;2022-11-12T01:31:43;13.15;;;7.68;;
70247;SDS011;57641;51.416;5.506;2022-11-12T01:34:09;13.15;;;6.90;;
70247;SDS011;57641;51.416;5.506;2022-11-12T01:36:37;13.10;;;7.50;;
70247;SDS011;57641;51.416;5.506;2022-11-12T01:39:06;14.60;;;7.53;;
70247;SDS011;57641;51.416;5.506;2022-11-12T01:41:34;12.98;;;8.07;;
70247;SDS011;57641;51.416;5.506;2022-11-12T01:47:02;11.13;;;7.05;;
70247;SDS011;57641;51.416;5.506;2022-11-12T01:49:41;11.32;;;7.15;;
70247;SDS011;57641;51.416;5.506;2022-11-12T01:52:10;11.05;;;6.78;;
70247;SDS011;57641;51.416;5.506;2022-11-12T01:54:37;12.63;;;7.50;;
70247;SDS011;57641;51.416;5.506;2022-11-12T01:57:03;10.07;;;6.85;;
70247;SDS011;57641;51.416;5.506;2022-11-12T01:59:32;11.60;;;7.03;;
70247;SDS011;57641;51.416;5.506;2022-11-12T02:02:00;11.25;;;7.55;;
70247;SDS011;57641;51.416;5.506;2022-11-12T02:04:26;12.00;;;7.40;;
70247;SDS011;57641;51.416;5.506;2022-11-12T02:06:52;12.02;;;7.15;;
70247;SDS011;57641;51.416;5.506;2022-11-12T02:09:20;10.55;;;7.32;;
70247;SDS011;57641;51.416;5.506;2022-11-12T02:11:46;14.68;;;10.07;;
70247;SDS011;57641;51.416;5.506;2022-11-12T02:14:12;9.93;;;7.13;;
70247;SDS011;57641;51.416;5.506;2022-11-12T02:16:42;12.75;;;7.10;;
70247;SDS011;57641;51.416;5.506;2022-11-12T02:19:10;11.00;;;6.90;;
70247;SDS011;57641;51.416;5.506;2022-11-12T02:21:37;11.38;;;6.80;;
70247;SDS011;57641;51.416;5.506;2022-11-12T02:26:43;11.60;;;7.18;;
70247;SDS011;57641;51.416;5.506;2022-11-12T02:29:10;12.07;;;7.20;;
70247;SDS011;57641;51.416;5.506;2022-11-12T02:31:36;10.50;;;6.60;;
70247;SDS011;57641;51.416;5.506;2022-11-12T02:34:03;12.18;;;6.68;;
70247;SDS011;57641;51.416;5.506;2022-11-12T02:36:29;11.60;;;7.00;;
70247;SDS011;57641;51.416;5.506;2022-11-12T02:38:55;10.82;;;7.07;;
70247;SDS011;57641;51.416;5.506;2022-11-12T02:41:21;12.23;;;7.38;;
70247;SDS011;57641;51.416;5.506;2022-11-12T02:43:48;11.25;;;7.22;;
70247;SDS011;57641;51.416;5.506;2022-11-12T02:46:14;14.27;;;7.38;;
70247;SDS011;57641;51.416;5.506;2022-11-12T02:48:40;13.15;;;7.68;;
70247;SDS011;57641;51.416;5.506;2022-11-12T02:51:06;14.55;;;8.13;;
70247;SDS011;57641;51.416;5.506;2022-11-12T02:53:32;13.32;;;7.30;;
70247;SDS011;57641;51.416;5.506;2022-11-12T02:55:59;12.45;;;7.97;;
70247;SDS011;57641;51.416;5.506;2022-11-12T02:58:25;10.68;;;7.05;;
70247;SDS011;57641;51.416;5.506;2022-11-12T03:00:51;12.13;;;7.13;;
70247;SDS011;57641;51.416;5.506;2022-11-12T03:03:17;11.65;;;6.40;;
70247;SDS011;57641;51.416;5.506;2022-11-12T03:05:43;9.85;;;7.28;;
70247;SDS011;57641;51.416;5.506;2022-11-12T03:08:10;10.60;;;6.82;;
70247;SDS011;57641;51.416;5.506;2022-11-12T03:10:36;15.07;;;7.13;;
70247;SDS011;57641;51.416;5.506;2022-11-12T03:13:03;12.52;;;6.88;;
70247;SDS011;57641;51.416;5.506;2022-11-12T03:15:30;10.73;;;6.40;;
70247;SDS011;57641;51.416;5.506;2022-11-12T03:17:57;11.75;;;7.05;;
70247;SDS011;57641;51.416;5.506;2022-11-12T03:20:23;11.20;;;7.22;;
70247;SDS011;57641;51.416;5.506;2022-11-12T03:22:56;11.25;;;6.80;;
70247;SDS011;57641;51.416;5.506;2022-11-12T03:25:23;12.93;;;7.18;;
70247;SDS011;57641;51.416;5.506;2022-11-12T03:27:55;12.90;;;7.00;;
70247;SDS011;57641;51.416;5.506;2022-11-12T03:30:21;11.82;;;7.05;;
70247;SDS011;57641;51.416;5.506;2022-11-12T03:32:47;14.05;;;6.45;;
70247;SDS011;57641;51.416;5.506;2022-11-12T03:35:13;10.10;;;6.20;;
70247;SDS011;57641;51.416;5.506;2022-11-12T03:37:39;12.10;;;6.47;;
70247;SDS011;57641;51.416;5.506;2022-11-12T03:40:05;12.40;;;6.22;;
70247;SDS011;57641;51.416;5.506;2022-11-12T03:42:32;13.32;;;7.30;;
70247;SDS011;57641;51.416;5.506;2022-11-12T03:44:58;10.15;;;6.15;;
70247;SDS011;57641;51.416;5.506;2022-11-12T03:47:24;9.85;;;6.50;;
70247;SDS011;57641;51.416;5.506;2022-11-12T03:49:50;10.93;;;6.05;;
70247;SDS011;57641;51.416;5.506;2022-11-12T03:52:16;10.05;;;6.47;;
70247;SDS011;57641;51.416;5.506;2022-11-12T03:54:42;13.27;;;7.20;;
70247;SDS011;57641;51.416;5.506;2022-11-12T03:57:07;9.68;;;6.30;;
70247;SDS011;57641;51.416;5.506;2022-11-12T03:59:33;11.20;;;6.78;;
70247;SDS011;57641;51.416;5.506;2022-11-12T04:02:00;10.98;;;6.80;;
70247;SDS011;57641;51.416;5.506;2022-11-12T04:04:25;11.02;;;6.38;;
70247;SDS011;57641;51.416;5.506;2022-11-12T04:07:11;11.35;;;6.63;;
70247;SDS011;57641;51.416;5.506;2022-11-12T04:09:56;12.43;;;6.82;;
70247;SDS011;57641;51.416;5.506;2022-11-12T04:12:22;11.77;;;6.78;;
70247;SDS011;57641;51.416;5.506;2022-11-12T04:15:07;13.32;;;7.10;;
70247;SDS011;57641;51.416;5.506;2022-11-12T04:17:33;9.55;;;6.63;;
70247;SDS011;57641;51.416;5.506;2022-11-12T04:20:18;12.50;;;6.63;;
70247;SDS011;57641;51.416;5.506;2022-11-12T04:23:03;10.68;;;7.10;;
70247;SDS011;57641;51.416;5.506;2022-11-12T04:25:29;8.80;;;6.68;;
70247;SDS011;57641;51.416;5.506;2022-11-12T04:28:14;10.38;;;6.43;;
70247;SDS011;57641;51.416;5.506;2022-11-12T04:30:40;17.30;;;6.35;;
70247;SDS011;57641;51.416;5.506;2022-11-12T04:33:05;11.60;;;7.10;;
70247;SDS011;57641;51.416;5.506;2022-11-12T04:35:31;10.23;;;6.85;;
70247;SDS011;57641;51.416;5.506;2022-11-12T04:37:57;15.85;;;7.30;;
70247;SDS011;57641;51.416;5.506;2022-11-12T04:40:24;11.25;;;6.85;;
70247;SDS011;57641;51.416;5.506;2022-11-12T04:43:11;11.18;;;6.45;;
70247;SDS011;57641;51.416;5.506;2022-11-12T04:45:56;14.63;;;6.85;;
70247;SDS011;57641;51.416;5.506;2022-11-12T04:48:22;12.18;;;6.80;;
70247;SDS011;57641;51.416;5.506;2022-11-12T04:50:52;12.38;;;7.25;;
70247;SDS011;57641;51.416;5.506;2022-11-12T04:53:19;13.40;;;7.00;;
70247;SDS011;57641;51.416;5.506;2022-11-12T04:55:48;11.98;;;6.78;;
70247;SDS011;57641;51.416;5.506;2022-11-12T04:58:14;11.90;;;6.90;;
70247;SDS011;57641;51.416;5.506;2022-11-12T05:00:40;13.35;;;6.93;;
70247;SDS011;57641;51.416;5.506;2022-11-12T05:03:06;10.10;;;6.15;;
70247;SDS011;57641;51.416;5.506;2022-11-12T05:05:33;12.32;;;5.85;;
70247;SDS011;57641;51.416;5.506;2022-11-12T05:07:59;11.50;;;6.47;;
70247;SDS011;57641;51.416;5.506;2022-11-12T05:10:26;10.07;;;6.57;;
70247;SDS011;57641;51.416;5.506;2022-11-12T05:12:52;10.30;;;6.70;;
70247;SDS011;57641;51.416;5.506;2022-11-12T05:15:18;13.38;;;6.70;;
70247;SDS011;57641;51.416;5.506;2022-11-12T05:17:44;10.32;;;6.38;;
70247;SDS011;57641;51.416;5.506;2022-11-12T05:20:10;11.65;;;6.68;;
70247;SDS011;57641;51.416;5.506;2022-11-12T05:22:37;9.98;;;6.32;;
70247;SDS011;57641;51.416;5.506;2022-11-12T05:25:03;13.18;;;7.05;;
70247;SDS011;57641;51.416;5.506;2022-11-12T05:27:29;11.18;;;7.25;;
70247;SDS011;57641;51.416;5.506;2022-11-12T05:29:55;10.35;;;6.45;;
70247;SDS011;57641;51.416;5.506;2022-11-12T05:32:21;9.98;;;6.40;;
70247;SDS011;57641;51.416;5.506;2022-11-12T05:34:47;8.65;;;6.18;;
70247;SDS011;57641;51.416;5.506;2022-11-12T05:37:14;12.82;;;6.18;;
70247;SDS011;57641;51.416;5.506;2022-11-12T05:39:40;10.10;;;6.55;;
70247;SDS011;57641;51.416;5.506;2022-11-12T05:42:06;9.45;;;6.05;;
70247;SDS011;57641;51.416;5.506;2022-11-12T05:44:32;11.90;;;6.60;;
70247;SDS011;57641;51.416;5.506;2022-11-12T05:46:59;13.13;;;6.63;;
70247;SDS011;57641;51.416;5.506;2022-11-12T05:49:25;9.43;;;6.55;;
70247;SDS011;57641;51.416;5.506;2022-11-12T05:51:51;12.63;;;6.72;;
70247;SDS011;57641;51.416;5.506;2022-11-12T05:54:17;12.00;;;6.57;;
70247;SDS011;57641;51.416;5.506;2022-11-12T05:56:43;10.25;;;6.60;;
70247;SDS011;57641;51.416;5.506;2022-11-12T05:59:10;9.95;;;6.55;;
70247;SDS011;57641;51.416;5.506;2022-11-12T06:01:36;10.35;;;6.40;;
70247;SDS011;57641;51.416;5.506;2022-11-12T06:04:08;13.45;;;7.28;;
70247;SDS011;57641;51.416;5.506;2022-11-12T06:06:35;13.80;;;6.78;;
70247;SDS011;57641;51.416;5.506;2022-11-12T06:09:02;13.18;;;7.18;;
70247;SDS011;57641;51.416;5.506;2022-11-12T06:11:28;13.30;;;7.50;;
70247;SDS011;57641;51.416;5.506;2022-11-12T06:13:54;9.68;;;6.57;;
70247;SDS011;57641;51.416;5.506;2022-11-12T06:16:20;13.82;;;7.30;;
70247;SDS011;57641;51.416;5.506;2022-11-12T06:18:46;11.75;;;6.95;;
70247;SDS011;57641;51.416;5.506;2022-11-12T06:21:12;13.10;;;7.45;;
70247;SDS011;57641;51.416;5.506;2022-11-12T06:23:48;10.30;;;6.63;;
70247;SDS011;57641;51.416;5.506;2022-11-12T06:26:14;11.02;;;6.88;;
70247;SDS011;57641;51.416;5.506;2022-11-12T06:28:41;11.35;;;6.65;;
70247;SDS011;57641;51.416;5.506;2022-11-12T06:31:07;11.85;;;7.10;;
70247;SDS011;57641;51.416;5.506;2022-11-12T06:33:33;9.93;;;6.95;;
70247;SDS011;57641;51.416;5.506;2022-11-12T06:35:59;13.82;;;7.25;;
70247;SDS011;57641;51.416;5.506;2022-11-12T06:38:29;8.55;;;6.10;;
70247;SDS011;57641;51.416;5.506;2022-11-12T06:40:55;11.65;;;7.57;;
70247;SDS011;57641;51.416;5.506;2022-11-12T06:43:21;10.23;;;6.53;;
70247;SDS011;57641;51.416;5.506;2022-11-12T06:45:48;12.93;;;7.22;;
70247;SDS011;57641;51.416;5.506;2022-11-12T06:48:14;11.52;;;6.70;;
70247;SDS011;57641;51.416;5.506;2022-11-12T06:50:40;12.85;;;6.90;;
70247;SDS011;57641;51.416;5.506;2022-11-12T06:53:06;11.43;;;7.18;;
70247;SDS011;57641;51.416;5.506;2022-11-12T06:55:32;12.27;;;6.90;;
70247;SDS011;57641;51.416;5.506;2022-11-12T06:57:58;13.18;;;7.45;;
70247;SDS011;57641;51.416;5.506;2022-11-12T07:00:24;12.30;;;7.38;;
70247;SDS011;57641;51.416;5.506;2022-11-12T07:02:50;11.15;;;6.82;;
70247;SDS011;57641;51.416;5.506;2022-11-12T07:05:16;11.35;;;6.68;;
70247;SDS011;57641;51.416;5.506;2022-11-12T07:07:42;15.52;;;8.05;;
70247;SDS011;57641;51.416;5.506;2022-11-12T07:10:08;12.20;;;7.18;;
70247;SDS011;57641;51.416;5.506;2022-11-12T07:12:34;13.88;;;8.52;;
70247;SDS011;57641;51.416;5.506;2022-11-12T07:15:00;13.05;;;7.53;;
70247;SDS011;57641;51.416;5.506;2022-11-12T07:17:26;10.70;;;6.63;;
70247;SDS011;57641;51.416;5.506;2022-11-12T07:19:52;13.43;;;7.35;;
70247;SDS011;57641;51.416;5.506;2022-11-12T07:22:19;13.93;;;8.35;;
70247;SDS011;57641;51.416;5.506;2022-11-12T07:24:45;11.10;;;6.75;;
70247;SDS011;57641;51.416;5.506;2022-11-12T07:27:10;11.35;;;6.78;;
70247;SDS011;57641;51.416;5.506;2022-11-12T07:29:37;11.60;;;6.57;;
70247;SDS011;57641;51.416;5.506;2022-11-12T07:32:03;10.85;;;6.38;;
70247;SDS011;57641;51.416;5.506;2022-11-12T07:34:29;12.82;;;7.05;;
70247;SDS011;57641;51.416;5.506;2022-11-12T07:36:55;11.95;;;7.15;;
70247;SDS011;57641;51.416;5.506;2022-11-12T07:39:21;12.25;;;6.70;;
70247;SDS011;57641;51.416;5.506;2022-11-12T07:41:47;14.20;;;7.45;;
70247;SDS011;57641;51.416;5.506;2022-11-12T07:44:13;12.00;;;7.85;;
70247;SDS011;57641;51.416;5.506;2022-11-12T07:46:39;10.80;;;7.10;;
70247;SDS011;57641;51.416;5.506;2022-11-12T07:49:05;10.52;;;7.03;;
70247;SDS011;57641;51.416;5.506;2022-11-12T07:51:31;11.23;;;6.65;;
70247;SDS011;57641;51.416;5.506;2022-11-12T07:53:57;11.07;;;6.40;;
70247;SDS011;57641;51.416;5.506;2022-11-12T07:56:26;13.55;;;6.50;;
70247;SDS011;57641;51.416;5.506;2022-11-12T07:58:53;13.40;;;7.35;;
70247;SDS011;57641;51.416;5.506;2022-11-12T08:01:23;10.25;;;6.78;;
70247;SDS011;57641;51.416;5.506;2022-11-12T08:03:50;12.82;;;7.38;;
70247;SDS011;57641;51.416;5.506;2022-11-12T08:06:16;10.55;;;6.75;;
70247;SDS011;57641;51.416;5.506;2022-11-12T08:08:42;9.90;;;6.72;;
70247;SDS011;57641;51.416;5.506;2022-11-12T08:11:08;12.35;;;6.72;;
70247;SDS011;57641;51.416;5.506;2022-11-12T08:13:34;11.32;;;7.25;;
70247;SDS011;57641;51.416;5.506;2022-11-12T08:16:00;15.73;;;8.10;;
70247;SDS011;57641;51.416;5.506;2022-11-12T08:18:26;12.98;;;7.53;;
70247;SDS011;57641;51.416;5.506;2022-11-12T08:20:59;15.55;;;7.60;;
70247;SDS011;57641;51.416;5.506;2022-11-12T08:23:26;13.30;;;6.88;;
70247;SDS011;57641;51.416;5.506;2022-11-12T08:25:56;13.68;;;7.85;;
70247;SDS011;57641;51.416;5.506;2022-11-12T08:28:22;13.48;;;7.38;;
70247;SDS011;57641;51.416;5.506;2022-11-12T08:30:48;11.68;;;6.80;;
70247;SDS011;57641;51.416;5.506;2022-11-12T08:33:14;12.63;;;7.50;;
70247;SDS011;57641;51.416;5.506;2022-11-12T08:35:40;13.13;;;7.78;;
70247;SDS011;57641;51.416;5.506;2022-11-12T08:38:06;12.73;;;7.72;;
70247;SDS011;57641;51.416;5.506;2022-11-12T08:40:34;11.60;;;7.10;;
70247;SDS011;57641;51.416;5.506;2022-11-12T08:43:09;13.55;;;8.50;;
70247;SDS011;57641;51.416;5.506;2022-11-12T08:45:36;12.43;;;7.43;;
70247;SDS011;57641;51.416;5.506;2022-11-12T08:48:04;14.73;;;8.45;;
70247;SDS011;57641;51.416;5.506;2022-11-12T08:50:30;12.05;;;7.90;;
70247;SDS011;57641;51.416;5.506;2022-11-12T08:53:00;12.75;;;8.38;;
70247;SDS011;57641;51.416;5.506;2022-11-12T08:55:27;12.38;;;8.05;;
70247;SDS011;57641;51.416;5.506;2022-11-12T08:57:53;12.60;;;8.68;;
70247;SDS011;57641;51.416;5.506;2022-11-12T09:00:19;13.32;;;8.45;;
70247;SDS011;57641;51.416;5.506;2022-11-12T09:02:45;14.57;;;8.48;;
70247;SDS011;57641;51.416;5.506;2022-11-12T09:05:11;13.82;;;9.25;;
70247;SDS011;57641;51.416;5.506;2022-11-12T09:07:37;13.63;;;8.70;;
70247;SDS011;57641;51.416;5.506;2022-11-12T09:10:03;15.10;;;9.13;;
70247;SDS011;57641;51.416;5.506;2022-11-12T09:12:30;16.38;;;9.65;;
70247;SDS011;57641;51.416;5.506;2022-11-12T09:14:56;15.13;;;9.02;;
70247;SDS011;57641;51.416;5.506;2022-11-12T09:17:22;14.80;;;9.13;;
70247;SDS011;57641;51.416;5.506;2022-11-12T09:19:48;14.30;;;9.00;;
70247;SDS011;57641;51.416;5.506;2022-11-12T09:22:14;14.73;;;8.65;;
70247;SDS011;57641;51.416;5.506;2022-11-12T09:24:40;15.02;;;8.90;;
70247;SDS011;57641;51.416;5.506;2022-11-12T09:27:06;12.82;;;7.95;;
70247;SDS011;57641;51.416;5.506;2022-11-12T09:29:32;12.50;;;7.60;;
70247;SDS011;57641;51.416;5.506;2022-11-12T09:31:58;13.70;;;8.68;;
70247;SDS011;57641;51.416;5.506;2022-11-12T09:34:24;12.77;;;7.63;;
70247;SDS011;57641;51.416;5.506;2022-11-12T09:36:50;15.68;;;8.13;;
70247;SDS011;57641;51.416;5.506;2022-11-12T09:39:16;13.40;;;8.50;;
70247;SDS011;57641;51.416;5.506;2022-11-12T09:41:42;14.10;;;9.02;;
70247;SDS011;57641;51.416;5.506;2022-11-12T09:44:13;16.63;;;9.40;;
70247;SDS011;57641;51.416;5.506;2022-11-12T09:46:42;12.85;;;8.45;;
70247;SDS011;57641;51.416;5.506;2022-11-12T09:49:11;14.98;;;8.75;;
70247;SDS011;57641;51.416;5.506;2022-11-12T09:52:00;14.82;;;9.32;;
70247;SDS011;57641;51.416;5.506;2022-11-12T09:54:24;12.88;;;8.85;;
70247;SDS011;57641;51.416;5.506;2022-11-12T09:56:52;14.55;;;7.90;;
70247;SDS011;57641;51.416;5.506;2022-11-12T09:59:18;14.52;;;8.77;;
70247;SDS011;57641;51.416;5.506;2022-11-12T10:01:51;15.85;;;8.73;;
70247;SDS011;57641;51.416;5.506;2022-11-12T10:09:47;12.77;;;9.38;;
70247;SDS011;57641;51.416;5.506;2022-11-12T10:17:50;12.90;;;8.65;;
70247;SDS011;57641;51.416;5.506;2022-11-12T10:25:24;13.90;;;8.05;;
70247;SDS011;57641;51.416;5.506;2022-11-12T10:27:51;13.50;;;8.70;;
70247;SDS011;57641;51.416;5.506;2022-11-12T10:30:20;16.45;;;8.88;;
70247;SDS011;57641;51.416;5.506;2022-11-12T10:32:49;15.98;;;9.23;;
70247;SDS011;57641;51.416;5.506;2022-11-12T10:35:19;15.27;;;9.65;;
70247;SDS011;57641;51.416;5.506;2022-11-12T10:37:59;14.98;;;9.13;;
70247;SDS011;57641;51.416;5.506;2022-11-12T10:40:37;13.57;;;8.20;;
70247;SDS011;57641;51.416;5.506;2022-11-12T10:43:04;14.73;;;8.20;;
70247;SDS011;57641;51.416;5.506;2022-11-12T10:45:30;14.13;;;8.85;;
70247;SDS011;57641;51.416;5.506;2022-11-12T10:47:57;16.65;;;10.15;;
70247;SDS011;57641;51.416;5.506;2022-11-12T10:50:28;15.25;;;9.05;;
70247;SDS011;57641;51.416;5.506;2022-11-12T10:52:59;15.85;;;8.82;;
70247;SDS011;57641;51.416;5.506;2022-11-12T10:55:30;13.43;;;8.93;;
70247;SDS011;57641;51.416;5.506;2022-11-12T11:00:32;13.13;;;8.48;;
70247;SDS011;57641;51.416;5.506;2022-11-12T11:02:59;14.18;;;8.40;;
70247;SDS011;57641;51.416;5.506;2022-11-12T11:07:58;11.55;;;7.97;;
70247;SDS011;57641;51.416;5.506;2022-11-12T11:10:29;15.73;;;9.40;;
70247;SDS011;57641;51.416;5.506;2022-11-12T11:15:34;15.70;;;9.20;;
70247;SDS011;57641;51.416;5.506;2022-11-12T11:18:00;13.27;;;8.65;;
70247;SDS011;57641;51.416;5.506;2022-11-12T11:20:33;16.20;;;8.63;;
70247;SDS011;57641;51.416;5.506;2022-11-12T11:23:15;17.48;;;9.48;;
70247;SDS011;57641;51.416;5.506;2022-11-12T11:25:42;18.05;;;9.45;;
70247;SDS011;57641;51.416;5.506;2022-11-12T11:28:18;13.77;;;7.55;;
70247;SDS011;57641;51.416;5.506;2022-11-12T11:30:58;12.00;;;8.30;;
70247;SDS011;57641;51.416;5.506;2022-11-12T11:38:34;15.43;;;8.50;;
70247;SDS011;57641;51.416;5.506;2022-11-12T11:43:57;13.05;;;7.32;;
70247;SDS011;57641;51.416;5.506;2022-11-12T11:51:49;13.63;;;7.20;;
70247;SDS011;57641;51.416;5.506;2022-11-12T11:56:45;9.27;;;6.43;;
70247;SDS011;57641;51.416;5.506;2022-11-12T11:59:22;11.23;;;7.40;;
70247;SDS011;57641;51.416;5.506;2022-11-12T12:02:03;13.40;;;7.60;;
70247;SDS011;57641;51.416;5.506;2022-11-12T12:12:25;14.63;;;9.70;;
70247;SDS011;57641;51.416;5.506;2022-11-12T12:22:49;13.43;;;8.02;;
70247;SDS011;57641;51.416;5.506;2022-11-12T12:25:17;10.88;;;7.85;;
70247;SDS011;57641;51.416;5.506;2022-11-12T12:27:51;18.38;;;7.60;;
70247;SDS011;57641;51.416;5.506;2022-11-12T12:32:49;11.48;;;7.03;;
70247;SDS011;57641;51.416;5.506;2022-11-12T12:38:00;14.80;;;8.40;;
70247;SDS011;57641;51.416;5.506;2022-11-12T12:45:41;9.48;;;6.05;;
70247;SDS011;57641;51.416;5.506;2022-11-12T12:48:12;11.80;;;6.43;;
70247;SDS011;57641;51.416;5.506;2022-11-12T12:50:38;9.60;;;6.43;;
70247;SDS011;57641;51.416;5.506;2022-11-12T12:59:15;10.40;;;6.38;;
70247;SDS011;57641;51.416;5.506;2022-11-12T13:08:49;11.05;;;6.90;;
70247;SDS011;57641;51.416;5.506;2022-11-12T13:32:56;9.25;;;5.50;;
70247;SDS011;57641;51.416;5.506;2022-11-12T13:37:49;7.07;;;5.07;;
70247;SDS011;57641;51.416;5.506;2022-11-12T13:40:20;8.20;;;6.05;;
70247;SDS011;57641;51.416;5.506;2022-11-12T13:42:48;9.00;;;5.85;;
70247;SDS011;57641;51.416;5.506;2022-11-12T13:45:18;9.85;;;6.40;;
70247;SDS011;57641;51.416;5.506;2022-11-12T13:47:45;8.68;;;5.82;;
70247;SDS011;57641;51.416;5.506;2022-11-12T13:50:21;10.20;;;6.53;;
70247;SDS011;57641;51.416;5.506;2022-11-12T13:52:47;9.55;;;6.03;;
70247;SDS011;57641;51.416;5.506;2022-11-12T13:57:40;14.98;;;8.18;;
70247;SDS011;57641;51.416;5.506;2022-11-12T14:02:42;10.73;;;7.63;;
70247;SDS011;57641;51.416;5.506;2022-11-12T14:05:19;10.23;;;7.22;;
70247;SDS011;57641;51.416;5.506;2022-11-12T14:10:36;11.90;;;7.38;;
70247;SDS011;57641;51.416;5.506;2022-11-12T14:20:46;13.77;;;8.00;;
70247;SDS011;57641;51.416;5.506;2022-11-12T14:23:14;11.55;;;7.85;;
70247;SDS011;57641;51.416;5.506;2022-11-12T14:25:47;11.68;;;7.95;;
70247;SDS011;57641;51.416;5.506;2022-11-12T14:28:21;11.02;;;8.13;;
70247;SDS011;57641;51.416;5.506;2022-11-12T14:30:51;12.88;;;8.50;;
70247;SDS011;57641;51.416;5.506;2022-11-12T14:33:17;12.77;;;8.95;;
70247;SDS011;57641;51.416;5.506;2022-11-12T14:35:45;12.90;;;8.07;;
70247;SDS011;57641;51.416;5.506;2022-11-12T14:38:31;13.65;;;9.07;;
70247;SDS011;57641;51.416;5.506;2022-11-12T14:41:00;15.52;;;8.77;;
70247;SDS011;57641;51.416;5.506;2022-11-12T14:45:56;16.08;;;8.82;;
70247;SDS011;57641;51.416;5.506;2022-11-12T14:48:23;15.27;;;9.65;;
70247;SDS011;57641;51.416;5.506;2022-11-12T14:50:50;13.77;;;8.55;;
70247;SDS011;57641;51.416;5.506;2022-11-12T14:53:21;14.50;;;9.45;;
70247;SDS011;57641;51.416;5.506;2022-11-12T14:55:48;15.00;;;9.20;;
70247;SDS011;57641;51.416;5.506;2022-11-12T14:58:17;14.15;;;8.82;;
70247;SDS011;57641;51.416;5.506;2022-11-12T15:00:44;14.50;;;9.00;;
70247;SDS011;57641;51.416;5.506;2022-11-12T15:03:11;13.05;;;8.15;;
70247;SDS011;57641;51.416;5.506;2022-11-12T15:08:38;14.45;;;8.88;;
70247;SDS011;57641;51.416;5.506;2022-11-12T15:13:43;15.30;;;8.85;;
70247;SDS011;57641;51.416;5.506;2022-11-12T15:16:10;13.65;;;8.82;;
70247;SDS011;57641;51.416;5.506;2022-11-12T15:18:40;15.88;;;8.30;;
70247;SDS011;57641;51.416;5.506;2022-11-12T15:21:14;12.70;;;8.50;;
70247;SDS011;57641;51.416;5.506;2022-11-12T15:23:46;15.93;;;9.15;;
70247;SDS011;57641;51.416;5.506;2022-11-12T15:26:13;14.00;;;9.07;;
70247;SDS011;57641;51.416;5.506;2022-11-12T15:28:40;14.88;;;8.65;;
70247;SDS011;57641;51.416;5.506;2022-11-12T15:31:14;12.88;;;8.13;;
70247;SDS011;57641;51.416;5.506;2022-11-12T15:33:40;14.05;;;8.15;;
70247;SDS011;57641;51.416;5.506;2022-11-12T15:36:13;13.60;;;8.23;;
70247;SDS011;57641;51.416;5.506;2022-11-12T15:38:40;12.38;;;8.02;;
70247;SDS011;57641;51.416;5.506;2022-11-12T15:41:18;15.75;;;7.47;;
70247;SDS011;57641;51.416;5.506;2022-11-12T15:43:44;12.65;;;7.43;;
70247;SDS011;57641;51.416;5.506;2022-11-12T15:46:11;11.48;;;6.93;;
70247;SDS011;57641;51.416;5.506;2022-11-12T15:48:41;13.35;;;7.57;;
70247;SDS011;57641;51.416;5.506;2022-11-12T15:51:08;12.80;;;7.90;;
70247;SDS011;57641;51.416;5.506;2022-11-12T15:53:34;13.13;;;8.02;;
70247;SDS011;57641;51.416;5.506;2022-11-12T15:56:00;12.88;;;8.10;;
70247;SDS011;57641;51.416;5.506;2022-11-12T15:58:36;13.10;;;8.23;;
70247;SDS011;57641;51.416;5.506;2022-11-12T16:01:04;11.63;;;8.25;;
70247;SDS011;57641;51.416;5.506;2022-11-12T16:03:31;19.50;;;8.77;;
70247;SDS011;57641;51.416;5.506;2022-11-12T16:05:57;17.35;;;9.18;;
70247;SDS011;57641;51.416;5.506;2022-11-12T16:08:23;13.27;;;8.00;;
70247;SDS011;57641;51.416;5.506;2022-11-12T16:10:49;14.45;;;8.55;;
70247;SDS011;57641;51.416;5.506;2022-11-12T16:13:22;14.15;;;7.95;;
70247;SDS011;57641;51.416;5.506;2022-11-12T16:15:50;13.35;;;8.48;;
70247;SDS011;57641;51.416;5.506;2022-11-12T16:18:16;14.55;;;8.45;;
70247;SDS011;57641;51.416;5.506;2022-11-12T16:20:42;12.40;;;8.20;;
70247;SDS011;57641;51.416;5.506;2022-11-12T16:23:09;14.38;;;7.95;;
70247;SDS011;57641;51.416;5.506;2022-11-12T16:25:35;16.98;;;9.10;;
70247;SDS011;57641;51.416;5.506;2022-11-12T16:28:02;14.93;;;7.82;;
70247;SDS011;57641;51.416;5.506;2022-11-12T16:30:32;11.60;;;7.25;;
70247;SDS011;57641;51.416;5.506;2022-11-12T16:32:59;14.52;;;8.70;;
70247;SDS011;57641;51.416;5.506;2022-11-12T16:35:26;13.90;;;8.05;;
70247;SDS011;57641;51.416;5.506;2022-11-12T16:37:53;13.38;;;9.15;;
70247;SDS011;57641;51.416;5.506;2022-11-12T16:40:21;17.05;;;8.13;;
70247;SDS011;57641;51.416;5.506;2022-11-12T16:42:48;16.30;;;9.32;;
70247;SDS011;57641;51.416;5.506;2022-11-12T16:45:14;15.40;;;9.75;;
70247;SDS011;57641;51.416;5.506;2022-11-12T16:47:47;17.05;;;9.30;;
70247;SDS011;57641;51.416;5.506;2022-11-12T16:50:17;17.85;;;10.18;;
70247;SDS011;57641;51.416;5.506;2022-11-12T16:52:45;16.95;;;10.32;;